sensor_id;sensor_type;location;lat;lon;timestamp;temperature;humidity
23681;DHT22;62915;50.832;4.462;2023-06-26T00:01:19;25.00;99.90
23681;DHT22;62915;50.832;4.462;2023-06-26T00:03:47;25.20;99.90
23681;DHT22;62915;50.832;4.462;2023-06-26T00:06:13;25.10;99.90
23681;DHT22;62915;50.832;4.462;2023-06-26T00:08:39;25.00;99.90
23681;DHT22;62915;50.832;4.462;2023-06-26T00:11:05;24.90;99.90
23681;DHT22;62915;50.832;4.462;2023-06-26T00:13:32;25.10;99.90
23681;DHT22;62915;50.832;4.462;2023-06-26T00:15:58;25.00;99.90
23681;DHT22;62915;50.832;4.462;2023-06-26T00:18:29;24.90;99.90
23681;DHT22;62915;50.832;4.462;2023-06-26T00:20:55;24.70;99.90
23681;DHT22;62915;50.832;4.462;2023-06-26T00:23:21;24.60;99.90
23681;DHT22;62915;50.832;4.462;2023-06-26T00:25:47;24.60;99.90
23681;DHT22;62915;50.832;4.462;2023-06-26T00:28:13;24.60;99.90
23681;DHT22;62915;50.832;4.462;2023-06-26T00:30:39;24.40;99.90
23681;DHT22;62915;50.832;4.462;2023-06-26T00:33:04;24.20;99.90
23681;DHT22;62915;50.832;4.462;2023-06-26T00:35:30;24.30;99.90
23681;DHT22;62915;50.832;4.462;2023-06-26T00:37:56;24.20;99.90
23681;DHT22;62915;50.832;4.462;2023-06-26T00:40:21;24.20;99.90
23681;DHT22;62915;50.832;4.462;2023-06-26T00:42:47;24.10;99.90
23681;DHT22;62915;50.832;4.462;2023-06-26T00:45:13;24.00;99.90
23681;DHT22;62915;50.832;4.462;2023-06-26T00:47:39;23.90;99.90
23681;DHT22;62915;50.832;4.462;2023-06-26T00:50:05;23.90;99.90
23681;DHT22;62915;50.832;4.462;2023-06-26T00:52:32;23.70;99.90
23681;DHT22;62915;50.832;4.462;2023-06-26T00:54:58;23.80;99.90
23681;DHT22;62915;50.832;4.462;2023-06-26T00:57:23;23.70;99.90
23681;DHT22;62915;50.832;4.462;2023-06-26T00:59:50;23.60;99.90
23681;DHT22;62915;50.832;4.462;2023-06-26T01:02:16;23.80;99.90
23681;DHT22;62915;50.832;4.462;2023-06-26T01:04:47;23.70;99.90
23681;DHT22;62915;50.832;4.462;2023-06-26T01:07:14;23.50;99.90
23681;DHT22;62915;50.832;4.462;2023-06-26T01:09:41;23.40;99.90
23681;DHT22;62915;50.832;4.462;2023-06-26T01:12:07;23.30;99.90
23681;DHT22;62915;50.832;4.462;2023-06-26T01:14:34;23.30;99.90
23681;DHT22;62915;50.832;4.462;2023-06-26T01:17:01;23.20;99.90
23681;DHT22;62915;50.832;4.462;2023-06-26T01:19:29;23.20;99.90
23681;DHT22;62915;50.832;4.462;2023-06-26T01:27:45;22.80;99.90
23681;DHT22;62915;50.832;4.462;2023-06-26T01:30:12;22.80;99.90
23681;DHT22;62915;50.832;4.462;2023-06-26T01:32:39;23.00;99.90
23681;DHT22;62915;50.832;4.462;2023-06-26T01:35:06;23.00;99.90
23681;DHT22;62915;50.832;4.462;2023-06-26T01:37:33;23.00;99.90
23681;DHT22;62915;50.832;4.462;2023-06-26T01:39:58;22.90;99.90
23681;DHT22;62915;50.832;4.462;2023-06-26T01:42:24;22.80;99.90
23681;DHT22;62915;50.832;4.462;2023-06-26T01:44:50;22.80;99.90
23681;DHT22;62915;50.832;4.462;2023-06-26T01:47:22;22.50;99.90
23681;DHT22;62915;50.832;4.462;2023-06-26T01:50:12;22.50;99.90
23681;DHT22;62915;50.832;4.462;2023-06-26T01:52:40;22.40;99.90
23681;DHT22;62915;50.832;4.462;2023-06-26T01:55:24;22.40;99.90
23681;DHT22;62915;50.832;4.462;2023-06-26T01:57:56;22.40;99.90
23681;DHT22;62915;50.832;4.462;2023-06-26T02:00:24;22.70;99.90
23681;DHT22;62915;50.832;4.462;2023-06-26T02:02:52;22.60;99.90
23681;DHT22;62915;50.832;4.462;2023-06-26T02:05:17;22.80;99.90
23681;DHT22;62915;50.832;4.462;2023-06-26T02:07:43;22.70;99.90
23681;DHT22;62915;50.832;4.462;2023-06-26T02:10:09;22.50;99.90
23681;DHT22;62915;50.832;4.462;2023-06-26T02:12:36;22.50;99.90
23681;DHT22;62915;50.832;4.462;2023-06-26T02:15:03;22.50;99.90
23681;DHT22;62915;50.832;4.462;2023-06-26T02:17:30;22.50;99.90
23681;DHT22;62915;50.832;4.462;2023-06-26T02:19:56;22.30;99.90
23681;DHT22;62915;50.832;4.462;2023-06-26T02:22:21;22.40;99.90
23681;DHT22;62915;50.832;4.462;2023-06-26T02:24:47;22.30;99.90
23681;DHT22;62915;50.832;4.462;2023-06-26T02:27:13;22.20;99.90
23681;DHT22;62915;50.832;4.462;2023-06-26T02:29:40;22.10;99.90
23681;DHT22;62915;50.832;4.462;2023-06-26T02:32:07;22.10;99.90
23681;DHT22;62915;50.832;4.462;2023-06-26T02:34:32;22.10;99.90
23681;DHT22;62915;50.832;4.462;2023-06-26T02:36:58;22.10;99.90
23681;DHT22;62915;50.832;4.462;2023-06-26T02:39:26;22.10;99.90
23681;DHT22;62915;50.832;4.462;2023-06-26T02:41:52;22.00;99.90
23681;DHT22;62915;50.832;4.462;2023-06-26T02:44:18;22.00;99.90
23681;DHT22;62915;50.832;4.462;2023-06-26T02:46:44;21.90;99.90
23681;DHT22;62915;50.832;4.462;2023-06-26T02:49:10;21.80;99.90
23681;DHT22;62915;50.832;4.462;2023-06-26T02:51:36;21.70;99.90
23681;DHT22;62915;50.832;4.462;2023-06-26T02:54:02;21.70;99.90
23681;DHT22;62915;50.832;4.462;2023-06-26T02:56:27;21.50;99.90
23681;DHT22;62915;50.832;4.462;2023-06-26T02:58:57;21.60;99.90
23681;DHT22;62915;50.832;4.462;2023-06-26T03:01:23;21.70;99.90
23681;DHT22;62915;50.832;4.462;2023-06-26T03:03:49;21.70;99.90
23681;DHT22;62915;50.832;4.462;2023-06-26T03:06:16;21.60;99.90
23681;DHT22;62915;50.832;4.462;2023-06-26T03:08:42;21.70;99.90
23681;DHT22;62915;50.832;4.462;2023-06-26T03:11:08;21.80;99.90
23681;DHT22;62915;50.832;4.462;2023-06-26T03:13:35;21.80;99.90
23681;DHT22;62915;50.832;4.462;2023-06-26T03:16:02;21.70;99.90
23681;DHT22;62915;50.832;4.462;2023-06-26T03:18:28;21.50;99.90
23681;DHT22;62915;50.832;4.462;2023-06-26T03:20:57;21.60;99.90
23681;DHT22;62915;50.832;4.462;2023-06-26T03:23:23;21.50;99.90
23681;DHT22;62915;50.832;4.462;2023-06-26T03:25:50;21.50;99.90
23681;DHT22;62915;50.832;4.462;2023-06-26T03:28:16;21.30;99.90
23681;DHT22;62915;50.832;4.462;2023-06-26T03:30:41;21.40;99.90
23681;DHT22;62915;50.832;4.462;2023-06-26T03:33:07;21.30;99.90
23681;DHT22;62915;50.832;4.462;2023-06-26T03:35:33;21.30;99.90
23681;DHT22;62915;50.832;4.462;2023-06-26T03:38:01;21.10;99.90
23681;DHT22;62915;50.832;4.462;2023-06-26T03:40:27;21.10;99.90
23681;DHT22;62915;50.832;4.462;2023-06-26T03:42:53;21.00;99.90
23681;DHT22;62915;50.832;4.462;2023-06-26T03:45:19;21.00;99.90
23681;DHT22;62915;50.832;4.462;2023-06-26T03:47:45;21.00;99.90
23681;DHT22;62915;50.832;4.462;2023-06-26T03:50:14;20.90;99.90
23681;DHT22;62915;50.832;4.462;2023-06-26T03:52:40;21.00;99.90
23681;DHT22;62915;50.832;4.462;2023-06-26T03:55:06;21.00;99.90
23681;DHT22;62915;50.832;4.462;2023-06-26T03:57:32;21.00;99.90
23681;DHT22;62915;50.832;4.462;2023-06-26T03:59:57;21.00;99.90
23681;DHT22;62915;50.832;4.462;2023-06-26T04:02:23;20.90;99.90
23681;DHT22;62915;50.832;4.462;2023-06-26T04:04:48;20.90;99.90
23681;DHT22;62915;50.832;4.462;2023-06-26T04:07:14;20.90;99.90
23681;DHT22;62915;50.832;4.462;2023-06-26T04:09:40;20.90;99.90
23681;DHT22;62915;50.832;4.462;2023-06-26T04:12:06;20.90;99.90
23681;DHT22;62915;50.832;4.462;2023-06-26T04:14:32;20.90;99.90
23681;DHT22;62915;50.832;4.462;2023-06-26T04:16:58;21.00;99.90
23681;DHT22;62915;50.832;4.462;2023-06-26T04:19:26;21.10;99.90
23681;DHT22;62915;50.832;4.462;2023-06-26T04:21:52;21.00;99.90
23681;DHT22;62915;50.832;4.462;2023-06-26T04:24:17;21.00;99.90
23681;DHT22;62915;50.832;4.462;2023-06-26T04:26:43;21.00;99.90
23681;DHT22;62915;50.832;4.462;2023-06-26T04:29:10;20.90;99.90
23681;DHT22;62915;50.832;4.462;2023-06-26T04:31:36;21.10;99.90
23681;DHT22;62915;50.832;4.462;2023-06-26T04:34:02;21.10;99.90
23681;DHT22;62915;50.832;4.462;2023-06-26T04:36:27;20.80;99.90
23681;DHT22;62915;50.832;4.462;2023-06-26T04:38:54;20.80;99.90
23681;DHT22;62915;50.832;4.462;2023-06-26T04:41:21;20.80;99.90
23681;DHT22;62915;50.832;4.462;2023-06-26T04:43:46;20.90;99.90
23681;DHT22;62915;50.832;4.462;2023-06-26T04:46:12;20.90;99.90
23681;DHT22;62915;50.832;4.462;2023-06-26T04:48:38;20.90;99.90
23681;DHT22;62915;50.832;4.462;2023-06-26T04:51:03;20.70;99.90
23681;DHT22;62915;50.832;4.462;2023-06-26T04:53:29;20.70;99.90
23681;DHT22;62915;50.832;4.462;2023-06-26T04:55:55;20.80;99.90
23681;DHT22;62915;50.832;4.462;2023-06-26T04:58:21;20.70;99.90
23681;DHT22;62915;50.832;4.462;2023-06-26T05:00:47;20.70;99.90
23681;DHT22;62915;50.832;4.462;2023-06-26T05:03:14;20.80;99.90
23681;DHT22;62915;50.832;4.462;2023-06-26T05:05:40;20.70;99.90
23681;DHT22;62915;50.832;4.462;2023-06-26T05:08:23;20.60;99.90
23681;DHT22;62915;50.832;4.462;2023-06-26T05:10:48;20.80;99.90
23681;DHT22;62915;50.832;4.462;2023-06-26T05:13:14;20.70;99.90
23681;DHT22;62915;50.832;4.462;2023-06-26T05:15:43;20.50;99.90
23681;DHT22;62915;50.832;4.462;2023-06-26T05:18:09;20.50;99.90
23681;DHT22;62915;50.832;4.462;2023-06-26T05:20:36;20.60;99.90
23681;DHT22;62915;50.832;4.462;2023-06-26T05:23:02;20.50;99.90
23681;DHT22;62915;50.832;4.462;2023-06-26T05:25:29;20.60;99.90
23681;DHT22;62915;50.832;4.462;2023-06-26T05:27:56;20.70;99.90
23681;DHT22;62915;50.832;4.462;2023-06-26T05:30:23;20.50;99.90
23681;DHT22;62915;50.832;4.462;2023-06-26T05:32:51;20.50;99.90
23681;DHT22;62915;50.832;4.462;2023-06-26T05:35:19;20.50;99.90
23681;DHT22;62915;50.832;4.462;2023-06-26T05:37:45;20.50;99.90
23681;DHT22;62915;50.832;4.462;2023-06-26T05:40:14;20.50;99.90
23681;DHT22;62915;50.832;4.462;2023-06-26T05:42:40;20.70;99.90
23681;DHT22;62915;50.832;4.462;2023-06-26T05:45:06;20.80;99.90
23681;DHT22;62915;50.832;4.462;2023-06-26T05:47:31;20.90;99.90
23681;DHT22;62915;50.832;4.462;2023-06-26T05:49:57;20.90;99.90
23681;DHT22;62915;50.832;4.462;2023-06-26T05:52:23;21.00;99.90
23681;DHT22;62915;50.832;4.462;2023-06-26T05:54:50;21.00;99.90
23681;DHT22;62915;50.832;4.462;2023-06-26T05:57:16;21.00;99.90
23681;DHT22;62915;50.832;4.462;2023-06-26T05:59:43;21.00;99.90
23681;DHT22;62915;50.832;4.462;2023-06-26T06:02:09;21.00;99.90
23681;DHT22;62915;50.832;4.462;2023-06-26T06:04:35;21.00;99.90
23681;DHT22;62915;50.832;4.462;2023-06-26T06:07:03;20.80;99.90
23681;DHT22;62915;50.832;4.462;2023-06-26T06:09:28;21.00;99.90
23681;DHT22;62915;50.832;4.462;2023-06-26T06:11:54;21.10;99.90
23681;DHT22;62915;50.832;4.462;2023-06-26T06:14:20;21.10;99.90
23681;DHT22;62915;50.832;4.462;2023-06-26T06:16:46;21.10;99.90
23681;DHT22;62915;50.832;4.462;2023-06-26T06:19:11;21.10;99.90
23681;DHT22;62915;50.832;4.462;2023-06-26T06:21:39;21.10;99.90
23681;DHT22;62915;50.832;4.462;2023-06-26T06:24:05;21.10;99.90
23681;DHT22;62915;50.832;4.462;2023-06-26T06:26:32;21.00;99.90
23681;DHT22;62915;50.832;4.462;2023-06-26T06:28:58;21.20;99.90
23681;DHT22;62915;50.832;4.462;2023-06-26T06:31:24;21.30;99.90
23681;DHT22;62915;50.832;4.462;2023-06-26T06:33:50;21.30;99.90
23681;DHT22;62915;50.832;4.462;2023-06-26T06:36:15;21.20;99.90
23681;DHT22;62915;50.832;4.462;2023-06-26T06:38:44;21.30;99.90
23681;DHT22;62915;50.832;4.462;2023-06-26T06:41:10;21.30;99.90
23681;DHT22;62915;50.832;4.462;2023-06-26T06:43:36;21.60;99.90
23681;DHT22;62915;50.832;4.462;2023-06-26T06:46:02;21.70;99.90
23681;DHT22;62915;50.832;4.462;2023-06-26T06:48:28;21.70;99.90
23681;DHT22;62915;50.832;4.462;2023-06-26T06:50:54;21.70;99.90
23681;DHT22;62915;50.832;4.462;2023-06-26T06:53:22;21.70;99.90
23681;DHT22;62915;50.832;4.462;2023-06-26T06:55:49;21.80;99.90
23681;DHT22;62915;50.832;4.462;2023-06-26T06:58:15;22.00;99.90
23681;DHT22;62915;50.832;4.462;2023-06-26T07:00:48;22.00;99.90
23681;DHT22;62915;50.832;4.462;2023-06-26T07:03:14;21.80;99.90
23681;DHT22;62915;50.832;4.462;2023-06-26T07:05:41;21.80;99.90
23681;DHT22;62915;50.832;4.462;2023-06-26T07:08:07;21.90;99.90
23681;DHT22;62915;50.832;4.462;2023-06-26T07:10:33;21.90;99.90
23681;DHT22;62915;50.832;4.462;2023-06-26T07:12:59;22.10;99.90
23681;DHT22;62915;50.832;4.462;2023-06-26T07:15:25;21.90;99.90
23681;DHT22;62915;50.832;4.462;2023-06-26T07:17:51;21.90;99.90
23681;DHT22;62915;50.832;4.462;2023-06-26T07:20:16;21.90;99.90
23681;DHT22;62915;50.832;4.462;2023-06-26T07:22:43;21.70;99.90
23681;DHT22;62915;50.832;4.462;2023-06-26T07:25:10;21.60;99.90
23681;DHT22;62915;50.832;4.462;2023-06-26T07:27:37;21.60;99.90
23681;DHT22;62915;50.832;4.462;2023-06-26T07:30:04;21.80;99.90
23681;DHT22;62915;50.832;4.462;2023-06-26T07:32:29;21.90;99.90
23681;DHT22;62915;50.832;4.462;2023-06-26T07:34:55;22.10;99.90
23681;DHT22;62915;50.832;4.462;2023-06-26T07:37:21;22.40;99.90
23681;DHT22;62915;50.832;4.462;2023-06-26T07:39:48;22.40;99.90
23681;DHT22;62915;50.832;4.462;2023-06-26T07:42:14;22.40;99.90
23681;DHT22;62915;50.832;4.462;2023-06-26T07:44:41;22.30;99.90
23681;DHT22;62915;50.832;4.462;2023-06-26T07:47:07;22.50;99.90
23681;DHT22;62915;50.832;4.462;2023-06-26T07:49:34;22.60;99.90
23681;DHT22;62915;50.832;4.462;2023-06-26T07:52:00;22.60;99.90
23681;DHT22;62915;50.832;4.462;2023-06-26T07:54:26;22.60;99.90
23681;DHT22;62915;50.832;4.462;2023-06-26T07:56:56;22.60;99.90
23681;DHT22;62915;50.832;4.462;2023-06-26T07:59:23;22.70;99.90
23681;DHT22;62915;50.832;4.462;2023-06-26T08:01:50;22.80;99.90
23681;DHT22;62915;50.832;4.462;2023-06-26T08:04:16;22.80;99.90
23681;DHT22;62915;50.832;4.462;2023-06-26T08:06:43;22.90;99.90
23681;DHT22;62915;50.832;4.462;2023-06-26T08:09:09;23.10;99.90
23681;DHT22;62915;50.832;4.462;2023-06-26T08:11:35;23.10;99.90
23681;DHT22;62915;50.832;4.462;2023-06-26T08:14:00;23.20;99.90
23681;DHT22;62915;50.832;4.462;2023-06-26T08:16:27;23.20;99.90
23681;DHT22;62915;50.832;4.462;2023-06-26T08:18:53;23.30;99.90
23681;DHT22;62915;50.832;4.462;2023-06-26T08:21:19;23.20;99.90
23681;DHT22;62915;50.832;4.462;2023-06-26T08:23:44;23.40;99.90
23681;DHT22;62915;50.832;4.462;2023-06-26T08:26:10;23.50;99.90
23681;DHT22;62915;50.832;4.462;2023-06-26T08:28:36;23.60;99.90
23681;DHT22;62915;50.832;4.462;2023-06-26T08:31:02;23.70;99.90
23681;DHT22;62915;50.832;4.462;2023-06-26T08:33:27;23.80;99.90
23681;DHT22;62915;50.832;4.462;2023-06-26T08:35:53;23.90;99.90
23681;DHT22;62915;50.832;4.462;2023-06-26T08:38:19;24.10;99.90
23681;DHT22;62915;50.832;4.462;2023-06-26T08:40:47;24.40;99.90
23681;DHT22;62915;50.832;4.462;2023-06-26T08:43:13;24.60;99.90
23681;DHT22;62915;50.832;4.462;2023-06-26T08:45:39;24.40;99.90
23681;DHT22;62915;50.832;4.462;2023-06-26T08:48:07;24.40;99.90
23681;DHT22;62915;50.832;4.462;2023-06-26T08:50:34;24.40;99.90
23681;DHT22;62915;50.832;4.462;2023-06-26T08:53:30;23.90;99.90
23681;DHT22;62915;50.832;4.462;2023-06-26T08:55:59;23.70;99.90
23681;DHT22;62915;50.832;4.462;2023-06-26T08:58:25;24.00;99.90
23681;DHT22;62915;50.832;4.462;2023-06-26T09:00:51;24.30;99.90
23681;DHT22;62915;50.832;4.462;2023-06-26T09:03:17;24.60;99.90
23681;DHT22;62915;50.832;4.462;2023-06-26T09:05:43;24.70;99.90
23681;DHT22;62915;50.832;4.462;2023-06-26T09:08:08;25.10;99.90
23681;DHT22;62915;50.832;4.462;2023-06-26T09:10:34;25.30;99.90
23681;DHT22;62915;50.832;4.462;2023-06-26T09:13:00;25.10;99.90
23681;DHT22;62915;50.832;4.462;2023-06-26T09:15:37;24.80;99.90
23681;DHT22;62915;50.832;4.462;2023-06-26T09:18:05;24.80;99.90
23681;DHT22;62915;50.832;4.462;2023-06-26T09:20:31;24.90;99.90
23681;DHT22;62915;50.832;4.462;2023-06-26T09:22:59;24.70;99.90
23681;DHT22;62915;50.832;4.462;2023-06-26T09:25:26;25.10;99.90
23681;DHT22;62915;50.832;4.462;2023-06-26T09:27:52;25.30;99.90
23681;DHT22;62915;50.832;4.462;2023-06-26T09:30:19;25.50;99.90
23681;DHT22;62915;50.832;4.462;2023-06-26T09:32:45;25.40;99.90
23681;DHT22;62915;50.832;4.462;2023-06-26T09:35:10;25.30;99.90
23681;DHT22;62915;50.832;4.462;2023-06-26T09:37:37;25.50;99.90
23681;DHT22;62915;50.832;4.462;2023-06-26T09:40:03;25.70;99.90
23681;DHT22;62915;50.832;4.462;2023-06-26T09:42:30;26.00;99.90
23681;DHT22;62915;50.832;4.462;2023-06-26T09:44:56;25.90;99.90
23681;DHT22;62915;50.832;4.462;2023-06-26T09:47:23;26.10;99.90
23681;DHT22;62915;50.832;4.462;2023-06-26T09:49:49;26.00;99.90
23681;DHT22;62915;50.832;4.462;2023-06-26T09:52:16;26.00;99.90
23681;DHT22;62915;50.832;4.462;2023-06-26T09:54:43;26.10;99.90
23681;DHT22;62915;50.832;4.462;2023-06-26T09:57:15;26.00;98.50
23681;DHT22;62915;50.832;4.462;2023-06-26T09:59:42;25.80;97.00
23681;DHT22;62915;50.832;4.462;2023-06-26T10:02:08;25.50;97.70
23681;DHT22;62915;50.832;4.462;2023-06-26T10:04:35;25.10;98.70
23681;DHT22;62915;50.832;4.462;2023-06-26T10:07:11;25.30;98.20
23681;DHT22;62915;50.832;4.462;2023-06-26T10:09:44;25.20;99.90
23681;DHT22;62915;50.832;4.462;2023-06-26T10:12:27;25.00;99.90
23681;DHT22;62915;50.832;4.462;2023-06-26T10:14:53;25.00;99.90
23681;DHT22;62915;50.832;4.462;2023-06-26T10:17:21;25.20;99.50
23681;DHT22;62915;50.832;4.462;2023-06-26T10:19:50;25.30;99.90
23681;DHT22;62915;50.832;4.462;2023-06-26T10:22:20;25.10;99.70
23681;DHT22;62915;50.832;4.462;2023-06-26T10:24:48;25.50;99.90
23681;DHT22;62915;50.832;4.462;2023-06-26T10:27:21;25.70;99.20
23681;DHT22;62915;50.832;4.462;2023-06-26T10:29:54;25.60;97.20
23681;DHT22;62915;50.832;4.462;2023-06-26T10:32:23;25.90;97.80
23681;DHT22;62915;50.832;4.462;2023-06-26T10:34:51;26.20;98.80
23681;DHT22;62915;50.832;4.462;2023-06-26T10:37:17;26.30;96.90
23681;DHT22;62915;50.832;4.462;2023-06-26T10:39:51;26.20;95.50
23681;DHT22;62915;50.832;4.462;2023-06-26T10:42:19;26.10;94.90
23681;DHT22;62915;50.832;4.462;2023-06-26T10:44:46;25.90;95.70
23681;DHT22;62915;50.832;4.462;2023-06-26T10:47:29;25.90;96.90
23681;DHT22;62915;50.832;4.462;2023-06-26T10:49:56;26.10;95.90
23681;DHT22;62915;50.832;4.462;2023-06-26T10:52:21;25.90;95.10
23681;DHT22;62915;50.832;4.462;2023-06-26T10:54:47;25.90;95.20
23681;DHT22;62915;50.832;4.462;2023-06-26T10:57:23;26.10;95.00
23681;DHT22;62915;50.832;4.462;2023-06-26T11:00:08;26.00;93.10
23681;DHT22;62915;50.832;4.462;2023-06-26T11:02:55;25.80;95.00
23681;DHT22;62915;50.832;4.462;2023-06-26T11:05:29;25.40;95.90
23681;DHT22;62915;50.832;4.462;2023-06-26T11:08:06;25.30;95.70
23681;DHT22;62915;50.832;4.462;2023-06-26T11:10:52;25.50;94.70
23681;DHT22;62915;50.832;4.462;2023-06-26T11:13:19;25.80;95.00
23681;DHT22;62915;50.832;4.462;2023-06-26T11:15:46;25.90;93.50
23681;DHT22;62915;50.832;4.462;2023-06-26T11:18:13;25.80;93.50
23681;DHT22;62915;50.832;4.462;2023-06-26T11:20:39;25.60;94.20
23681;DHT22;62915;50.832;4.462;2023-06-26T11:23:05;25.70;97.00
23681;DHT22;62915;50.832;4.462;2023-06-26T11:25:37;25.80;94.60
23681;DHT22;62915;50.832;4.462;2023-06-26T11:28:09;25.80;94.40
23681;DHT22;62915;50.832;4.462;2023-06-26T11:30:36;25.50;94.60
23681;DHT22;62915;50.832;4.462;2023-06-26T11:33:09;25.20;94.60
23681;DHT22;62915;50.832;4.462;2023-06-26T11:35:35;25.10;95.40
23681;DHT22;62915;50.832;4.462;2023-06-26T11:38:02;25.20;95.90
23681;DHT22;62915;50.832;4.462;2023-06-26T11:40:35;25.00;95.80
23681;DHT22;62915;50.832;4.462;2023-06-26T11:43:02;24.90;95.80
23681;DHT22;62915;50.832;4.462;2023-06-26T11:45:32;24.60;96.90
23681;DHT22;62915;50.832;4.462;2023-06-26T11:47:58;24.50;97.40
23681;DHT22;62915;50.832;4.462;2023-06-26T11:50:24;24.90;99.90
23681;DHT22;62915;50.832;4.462;2023-06-26T11:52:54;24.90;97.90
23681;DHT22;62915;50.832;4.462;2023-06-26T11:55:21;24.70;97.10
23681;DHT22;62915;50.832;4.462;2023-06-26T11:57:53;24.50;97.10
23681;DHT22;62915;50.832;4.462;2023-06-26T12:00:20;24.70;97.30
23681;DHT22;62915;50.832;4.462;2023-06-26T12:02:46;24.70;95.60
23681;DHT22;62915;50.832;4.462;2023-06-26T12:05:21;24.70;93.70
23681;DHT22;62915;50.832;4.462;2023-06-26T12:07:47;24.70;96.20
23681;DHT22;62915;50.832;4.462;2023-06-26T12:10:14;24.80;96.30
23681;DHT22;62915;50.832;4.462;2023-06-26T12:12:41;24.90;96.40
23681;DHT22;62915;50.832;4.462;2023-06-26T12:15:08;25.20;96.30
23681;DHT22;62915;50.832;4.462;2023-06-26T12:17:37;25.30;96.00
23681;DHT22;62915;50.832;4.462;2023-06-26T12:20:04;25.70;96.60
23681;DHT22;62915;50.832;4.462;2023-06-26T12:22:34;26.00;96.40
23681;DHT22;62915;50.832;4.462;2023-06-26T12:25:01;26.20;94.00
23681;DHT22;62915;50.832;4.462;2023-06-26T12:27:27;26.30;94.40
23681;DHT22;62915;50.832;4.462;2023-06-26T12:29:54;26.10;92.40
23681;DHT22;62915;50.832;4.462;2023-06-26T12:32:24;26.40;92.20
23681;DHT22;62915;50.832;4.462;2023-06-26T12:34:51;26.50;91.00
23681;DHT22;62915;50.832;4.462;2023-06-26T12:37:17;26.50;92.70
23681;DHT22;62915;50.832;4.462;2023-06-26T12:39:53;26.40;87.30
23681;DHT22;62915;50.832;4.462;2023-06-26T12:42:26;26.20;87.20
23681;DHT22;62915;50.832;4.462;2023-06-26T12:44:53;26.00;86.90
23681;DHT22;62915;50.832;4.462;2023-06-26T12:47:25;26.00;91.10
23681;DHT22;62915;50.832;4.462;2023-06-26T12:49:52;25.90;87.10
23681;DHT22;62915;50.832;4.462;2023-06-26T12:52:18;26.00;90.90
23681;DHT22;62915;50.832;4.462;2023-06-26T12:54:46;26.20;91.10
23681;DHT22;62915;50.832;4.462;2023-06-26T12:57:13;26.50;87.30
23681;DHT22;62915;50.832;4.462;2023-06-26T12:59:42;26.40;90.10
23681;DHT22;62915;50.832;4.462;2023-06-26T13:02:09;26.50;90.80
23681;DHT22;62915;50.832;4.462;2023-06-26T13:04:36;26.60;90.40
23681;DHT22;62915;50.832;4.462;2023-06-26T13:07:05;26.70;88.30
23681;DHT22;62915;50.832;4.462;2023-06-26T13:09:35;26.40;88.50
23681;DHT22;62915;50.832;4.462;2023-06-26T13:12:02;26.30;91.40
23681;DHT22;62915;50.832;4.462;2023-06-26T13:14:32;26.40;90.70
23681;DHT22;62915;50.832;4.462;2023-06-26T13:17:00;26.40;89.70
23681;DHT22;62915;50.832;4.462;2023-06-26T13:19:26;26.20;89.90
23681;DHT22;62915;50.832;4.462;2023-06-26T13:21:51;26.10;89.60
23681;DHT22;62915;50.832;4.462;2023-06-26T13:24:17;25.80;90.30
23681;DHT22;62915;50.832;4.462;2023-06-26T13:26:43;25.80;90.60
23681;DHT22;62915;50.832;4.462;2023-06-26T13:29:09;25.70;90.50
23681;DHT22;62915;50.832;4.462;2023-06-26T13:31:34;25.50;90.40
23681;DHT22;62915;50.832;4.462;2023-06-26T13:34:01;25.40;90.80
23681;DHT22;62915;50.832;4.462;2023-06-26T13:36:29;25.40;92.10
23681;DHT22;62915;50.832;4.462;2023-06-26T13:38:54;25.60;92.70
23681;DHT22;62915;50.832;4.462;2023-06-26T13:41:24;25.90;93.30
23681;DHT22;62915;50.832;4.462;2023-06-26T13:43:50;26.30;91.60
23681;DHT22;62915;50.832;4.462;2023-06-26T13:46:17;26.50;91.40
23681;DHT22;62915;50.832;4.462;2023-06-26T13:48:44;26.50;91.90
23681;DHT22;62915;50.832;4.462;2023-06-26T13:51:09;26.70;91.00
23681;DHT22;62915;50.832;4.462;2023-06-26T13:53:35;26.70;86.40
23681;DHT22;62915;50.832;4.462;2023-06-26T13:56:01;26.60;85.80
23681;DHT22;62915;50.832;4.462;2023-06-26T13:58:27;26.40;88.60
23681;DHT22;62915;50.832;4.462;2023-06-26T14:00:55;26.10;88.50
23681;DHT22;62915;50.832;4.462;2023-06-26T14:03:21;25.90;89.20
23681;DHT22;62915;50.832;4.462;2023-06-26T14:05:47;25.80;88.20
23681;DHT22;62915;50.832;4.462;2023-06-26T14:08:13;26.00;89.60
23681;DHT22;62915;50.832;4.462;2023-06-26T14:10:39;26.10;89.80
23681;DHT22;62915;50.832;4.462;2023-06-26T14:13:05;26.10;89.40
23681;DHT22;62915;50.832;4.462;2023-06-26T14:15:32;25.80;88.60
23681;DHT22;62915;50.832;4.462;2023-06-26T14:17:58;25.30;89.90
23681;DHT22;62915;50.832;4.462;2023-06-26T14:20:24;24.90;88.60
23681;DHT22;62915;50.832;4.462;2023-06-26T14:22:50;25.00;90.90
23681;DHT22;62915;50.832;4.462;2023-06-26T14:25:16;25.10;89.90
23681;DHT22;62915;50.832;4.462;2023-06-26T14:27:44;25.20;90.20
23681;DHT22;62915;50.832;4.462;2023-06-26T14:30:10;25.50;87.70
23681;DHT22;62915;50.832;4.462;2023-06-26T14:32:36;25.60;87.30
23681;DHT22;62915;50.832;4.462;2023-06-26T14:35:03;25.60;86.10
23681;DHT22;62915;50.832;4.462;2023-06-26T14:37:29;25.80;88.90
23681;DHT22;62915;50.832;4.462;2023-06-26T14:39:56;25.70;84.60
23681;DHT22;62915;50.832;4.462;2023-06-26T14:42:22;25.60;84.50
23681;DHT22;62915;50.832;4.462;2023-06-26T14:44:48;25.50;90.00
23681;DHT22;62915;50.832;4.462;2023-06-26T14:47:16;25.50;90.00
23681;DHT22;62915;50.832;4.462;2023-06-26T14:49:42;25.60;90.90
23681;DHT22;62915;50.832;4.462;2023-06-26T14:52:08;25.50;90.50
23681;DHT22;62915;50.832;4.462;2023-06-26T14:54:34;25.30;89.70
23681;DHT22;62915;50.832;4.462;2023-06-26T14:57:03;25.20;90.00
23681;DHT22;62915;50.832;4.462;2023-06-26T14:59:29;25.20;89.90
23681;DHT22;62915;50.832;4.462;2023-06-26T15:01:54;25.10;88.80
23681;DHT22;62915;50.832;4.462;2023-06-26T15:04:20;25.10;87.20
23681;DHT22;62915;50.832;4.462;2023-06-26T15:06:46;25.00;85.80
23681;DHT22;62915;50.832;4.462;2023-06-26T15:09:12;25.10;87.70
23681;DHT22;62915;50.832;4.462;2023-06-26T15:11:37;24.90;88.00
23681;DHT22;62915;50.832;4.462;2023-06-26T15:14:03;24.90;91.20
23681;DHT22;62915;50.832;4.462;2023-06-26T15:16:29;24.90;90.00
23681;DHT22;62915;50.832;4.462;2023-06-26T15:18:54;24.80;90.10
23681;DHT22;62915;50.832;4.462;2023-06-26T15:21:20;24.80;91.10
23681;DHT22;62915;50.832;4.462;2023-06-26T15:23:47;25.00;91.60
23681;DHT22;62915;50.832;4.462;2023-06-26T15:26:12;25.10;91.60
23681;DHT22;62915;50.832;4.462;2023-06-26T15:28:39;25.10;91.70
23681;DHT22;62915;50.832;4.462;2023-06-26T15:31:05;25.20;91.20
23681;DHT22;62915;50.832;4.462;2023-06-26T15:33:31;25.20;91.70
23681;DHT22;62915;50.832;4.462;2023-06-26T15:35:56;25.10;91.50